Time;durP1;ratioP1;P1;durP2;ratioP2;P2;SDS_P1;SDS_P2;PMS_P1;PMS_P2;Temp;Humidity;BMP_temperature;BMP_pressure;BME280_temperature;BME280_humidity;BME280_pressure;Samples;Min_cycle;Max_cycle;Signal;HPM_P1;HPM_P2
2023/12/11 00:03:13;;;;;;;2.20;0.80;;;;;;;9.93;100.00;98617.81;12197909;19;20053;-83
2023/12/11 00:07:14;;;;;;;2.90;0.87;;;;;;;9.93;100.00;98609.56;12219003;19;20007;-83
2023/12/11 00:11:17;;;;;;;4.43;1.05;;;;;;;9.97;100.00;98605.16;12219028;19;20350;-83
2023/12/11 00:15:26;;;;;;;3.15;0.80;;;;;;;10.09;100.00;98602.13;12195652;19;20011;-82
2023/12/11 00:19:28;;;;;;;2.42;0.77;;;;;;;10.15;100.00;98598.28;12214793;19;20010;-82
2023/12/11 00:23:30;;;;;;;2.40;0.90;;;;;;;10.17;100.00;98601.59;12212062;19;20042;-82
2023/12/11 00:27:32;;;;;;;2.13;1.00;;;;;;;10.11;100.00;98596.34;12191291;19;20007;-83
2023/12/11 00:31:36;;;;;;;2.03;0.60;;;;;;;10.01;100.00;98599.94;12214946;19;20014;-82
2023/12/11 00:35:38;;;;;;;4.23;1.27;;;;;;;9.96;100.00;98608.19;12193270;19;20085;-82
2023/12/11 00:39:40;;;;;;;2.63;1.17;;;;;;;9.90;100.00;98609.28;12212988;19;20544;-83
2023/12/11 00:43:42;;;;;;;2.97;0.88;;;;;;;9.84;100.00;98619.47;12210405;19;20374;-84
2023/12/11 00:47:47;;;;;;;3.58;0.73;;;;;;;9.82;100.00;98616.19;12190255;19;20007;-83
2023/12/11 00:51:52;;;;;;;3.05;0.98;;;;;;;9.78;100.00;98615.06;12220362;19;20480;-82
2023/12/11 00:55:54;;;;;;;3.30;0.70;;;;;;;9.78;100.00;98621.38;12219700;19;20390;-82
2023/12/11 00:59:57;;;;;;;4.65;0.80;;;;;;;9.87;100.00;98620.84;12197998;19;20022;-84
2023/12/11 01:03:59;;;;;;;2.15;0.90;;;;;;;10.04;100.00;98627.72;12223681;19;20072;-82
2023/12/11 01:08:07;;;;;;;2.33;1.05;;;;;;;10.13;100.00;98627.19;12247295;19;20010;-83
2023/12/11 01:12:09;;;;;;;2.75;0.93;;;;;;;10.22;100.00;98620.84;12228597;19;20011;-82
2023/12/11 01:16:12;;;;;;;5.15;0.73;;;;;;;10.28;100.00;98613.44;12231996;19;20050;-83
2023/12/11 01:20:14;;;;;;;2.03;0.70;;;;;;;10.28;100.00;98607.94;12207057;19;20011;-82
2023/12/11 01:24:19;;;;;;;3.92;0.93;;;;;;;10.33;100.00;98607.94;12181907;19;20018;-81
2023/12/11 01:28:21;;;;;;;1.23;0.80;;;;;;;10.32;100.00;98598.03;12205855;19;20010;-82
2023/12/11 01:32:23;;;;;;;2.83;0.88;;;;;;;10.35;100.00;98619.50;12210283;19;20010;-83
2023/12/11 01:36:25;;;;;;;4.47;0.70;;;;;;;10.35;100.00;98608.47;12187179;19;20702;-83
2023/12/11 01:40:27;;;;;;;2.33;0.60;;;;;;;10.43;100.00;98621.66;12206853;19;20028;-84
2023/12/11 01:44:30;;;;;;;1.10;0.70;;;;;;;10.51;100.00;98617.53;12206141;19;20019;-81
2023/12/11 01:48:32;;;;;;;2.75;0.88;;;;;;;10.57;100.00;98615.59;12187950;19;20002;-82
2023/12/11 01:52:36;;;;;;;6.35;1.00;;;;;;;10.59;100.00;98627.13;12211441;19;20085;-83
2023/12/11 01:56:38;;;;;;;1.73;0.68;;;;;;;10.63;100.00;98626.31;12194587;19;20031;-82
2023/12/11 02:00:44;;;;;;;2.90;0.95;;;;;;;10.65;100.00;98639.81;12209969;19;20051;-82
2023/12/11 02:04:49;;;;;;;3.00;0.77;;;;;;;10.69;100.00;98640.91;12206515;19;21459;-82
2023/12/11 02:08:52;;;;;;;1.10;0.60;;;;;;;10.68;100.00;98636.50;12189406;19;20808;-84
2023/12/11 02:12:54;;;;;;;2.63;1.20;;;;;;;10.71;100.00;98633.19;12209031;19;20015;-82
2023/12/11 02:16:55;;;;;;;3.22;0.88;;;;;;;10.71;100.00;98624.94;12209154;19;20267;-84
2023/12/11 02:20:58;;;;;;;2.75;0.80;;;;;;;10.70;100.00;98631.53;12185479;19;20023;-84
2023/12/11 02:25:05;;;;;;;2.58;0.80;;;;;;;10.66;100.00;98630.44;12207260;19;20023;-84
2023/12/11 02:29:09;;;;;;;4.55;1.10;;;;;;;10.47;100.00;98631.03;12216672;19;20015;-83
2023/12/11 02:33:11;;;;;;;3.47;0.95;;;;;;;10.34;100.00;98623.34;12233313;19;19999;-84
2023/12/11 02:37:14;;;;;;;2.45;0.70;;;;;;;10.32;100.00;98622.81;12213736;19;20014;-84
2023/12/11 02:41:15;;;;;;;;;;;;;;;10.35;100.00;98621.41;12216945;19;20017;-81
2023/12/11 02:45:18;;;;;;;2.97;0.80;;;;;;;10.35;100.00;98602.13;12180209;19;19936;-82
2023/12/11 02:49:20;;;;;;;2.20;0.80;;;;;;;10.29;100.00;98604.06;12207404;19;20018;-82
2023/12/11 02:53:22;;;;;;;3.88;0.98;;;;;;;10.19;100.00;98604.06;12209492;19;20025;-81
2023/12/11 02:57:24;;;;;;;3.28;0.93;;;;;;;10.17;100.00;98601.59;12185458;19;20011;-82
2023/12/11 03:01:25;;;;;;;2.33;0.73;;;;;;;10.20;100.00;98598.28;12209146;19;20002;-82
2023/12/11 03:05:28;;;;;;;;;;;;;;;10.35;100.00;98602.97;12210294;19;20015;-82
2023/12/11 03:09:31;;;;;;;3.03;0.87;;;;;;;10.44;100.00;98603.22;12195215;19;19907;-82
2023/12/11 03:13:33;;;;;;;3.15;0.82;;;;;;;10.51;100.00;98611.19;12218808;19;20081;-81
2023/12/11 03:17:35;;;;;;;2.90;0.93;;;;;;;10.55;100.00;98599.34;12218948;19;20053;-82
2023/12/11 03:21:37;;;;;;;1.83;0.83;;;;;;;10.58;100.00;98584.19;12200367;19;20021;-82
2023/12/11 03:25:39;;;;;;;1.45;0.70;;;;;;;10.57;100.00;98586.13;12216891;19;20084;-82
2023/12/11 03:29:41;;;;;;;5.45;1.00;;;;;;;10.52;100.00;98580.59;12196289;19;20037;-82
2023/12/11 03:33:44;;;;;;;3.33;1.33;;;;;;;10.46;100.00;98576.22;12217596;19;20015;-83
2023/12/11 03:37:46;;;;;;;4.70;1.87;;;;;;;10.40;100.00;98577.34;12213873;19;20006;-83
2023/12/11 03:41:50;;;;;;;4.00;1.13;;;;;;;10.45;100.00;98571.81;12197040;19;20471;-82
2023/12/11 03:45:54;;;;;;;3.42;1.08;;;;;;;10.48;100.00;98580.34;12217321;19;20014;-84
2023/12/11 03:49:57;;;;;;;3.90;1.10;;;;;;;10.58;100.00;98578.66;12221646;19;20006;-83
2023/12/11 03:54:05;;;;;;;4.13;1.15;;;;;;;10.59;100.00;98572.03;12199655;19;20487;-83
2023/12/11 03:58:07;;;;;;;3.28;0.90;;;;;;;10.66;100.00;98580.84;12218837;19;20007;-83
2023/12/11 04:02:09;;;;;;;3.33;1.25;;;;;;;10.68;100.00;98584.16;12214647;19;20011;-83
2023/12/11 04:06:12;;;;;;;2.65;0.85;;;;;;;10.75;100.00;98584.69;12198816;19;20014;-82
2023/12/11 04:10:14;;;;;;;4.07;0.93;;;;;;;10.74;100.00;98572.03;12219738;19;20014;-83
2023/12/11 04:14:16;;;;;;;6.13;1.63;;;;;;;10.83;100.00;98577.78;12217830;19;20011;-83
2023/12/11 04:18:20;;;;;;;4.22;1.08;;;;;;;10.83;100.00;98575.84;12193645;19;20023;-82
2023/12/11 04:22:22;;;;;;;5.33;1.37;;;;;;;10.84;100.00;98571.16;12218194;19;20018;-83
2023/12/11 04:26:24;;;;;;;4.45;1.08;;;;;;;10.87;100.00;98574.16;12219074;19;20011;-83
2023/12/11 04:30:26;;;;;;;4.27;1.00;;;;;;;10.87;100.00;98571.41;12200723;19;20011;-83
2023/12/11 04:34:28;;;;;;;6.03;1.33;;;;;;;10.90;100.00;98570.84;12218629;19;20109;-85
2023/12/11 04:38:31;;;;;;;6.13;1.23;;;;;;;10.85;100.00;98565.34;12216080;19;20066;-83
2023/12/11 04:42:33;;;;;;;3.07;0.80;;;;;;;10.91;100.00;98566.16;12196450;19;20553;-83
2023/12/11 04:46:35;;;;;;;5.07;1.17;;;;;;;10.88;100.00;98573.03;12212568;19;20431;-83
2023/12/11 04:50:38;;;;;;;5.93;1.38;;;;;;;10.89;100.00;98574.72;12210629;19;20376;-82
2023/12/11 04:54:41;;;;;;;3.97;1.10;;;;;;;10.91;100.00;98569.72;12212720;19;20015;-83
2023/12/11 04:58:43;;;;;;;4.53;1.13;;;;;;;10.95;100.00;98556.22;12212452;19;20461;-82
2023/12/11 05:02:45;;;;;;;6.22;1.23;;;;;;;10.92;100.00;98557.59;12190509;19;20007;-82
2023/12/11 05:06:48;;;;;;;4.38;0.98;;;;;;;10.97;100.00;98548.47;12212891;19;20022;-83
2023/12/11 05:10:49;;;;;;;4.00;1.40;;;;;;;10.93;100.00;98548.22;12212187;19;20536;-82
2023/12/11 05:14:52;;;;;;;;;;;;;;;10.86;100.00;98547.72;12186265;19;20223;-83
2023/12/11 05:18:55;;;;;;;4.40;1.08;;;;;;;10.87;100.00;98534.75;12210177;19;19994;-82
2023/12/11 05:22:57;;;;;;;7.25;1.77;;;;;;;10.77;100.00;98545.81;12212800;19;20362;-84
2023/12/11 05:26:59;;;;;;;6.30;2.25;;;;;;;10.79;100.00;98530.66;12192096;19;20046;-83
2023/12/11 05:31:02;;;;;;;6.57;1.33;;;;;;;10.86;100.00;98530.38;12212822;19;20079;-84
2023/12/11 05:35:06;;;;;;;10.63;1.30;;;;;;;10.92;100.00;98527.28;12211432;19;20010;-83
2023/12/11 05:39:08;;;;;;;5.20;1.30;;;;;;;10.91;100.00;98516.53;12189156;19;20014;-84
2023/12/11 05:43:10;;;;;;;6.47;1.35;;;;;;;10.78;100.00;98506.16;12212591;19;20026;-85
2023/12/11 05:47:12;;;;;;;6.78;1.25;;;;;;;10.59;100.00;98498.53;12207696;19;20011;-85
2023/12/11 05:51:13;;;;;;;6.65;1.50;;;;;;;10.46;100.00;98493.59;12186451;19;20010;-85
2023/12/11 05:55:15;;;;;;;2.10;0.90;;;;;;;10.35;100.00;98487.31;12205585;19;20009;-84
2023/12/11 05:59:17;;;;;;;7.17;2.20;;;;;;;10.25;100.00;98499.16;12205261;19;20010;-86
2023/12/11 06:03:19;;;;;;;4.85;1.10;;;;;;;10.14;100.00;98504.94;12186551;19;20018;-85
2023/12/11 06:07:21;;;;;;;3.38;1.20;;;;;;;10.09;100.00;98502.22;12207317;19;20018;-85
2023/12/11 06:11:22;;;;;;;3.63;1.45;;;;;;;10.09;100.00;98493.97;12204847;19;20023;-86
2023/12/11 06:15:24;;;;;;;7.78;1.38;;;;;;;10.10;100.00;98507.44;12184355;19;20477;-86
2023/12/11 06:19:26;;;;;;;2.28;1.00;;;;;;;10.06;100.00;98497.28;12205340;19;20403;-84
2023/12/11 06:23:28;;;;;;;2.10;1.03;;;;;;;10.04;100.00;98503.88;12206609;19;20018;-83
2023/12/11 06:27:30;;;;;;;2.50;1.10;;;;;;;10.02;100.00;98499.75;12185021;19;20031;-85
2023/12/11 06:31:32;;;;;;;4.05;1.00;;;;;;;10.08;100.00;98509.63;12203473;19;20015;-86
2023/12/11 06:35:34;;;;;;;7.13;2.15;;;;;;;10.16;100.00;98508.25;12207540;19;20493;-86
2023/12/11 06:39:36;;;;;;;2.30;1.00;;;;;;;10.30;100.00;98503.03;12183267;19;20390;-85
2023/12/11 06:43:38;;;;;;;5.28;1.42;;;;;;;10.30;100.00;98501.09;12220307;19;20077;-85
2023/12/11 06:47:40;;;;;;;3.35;0.70;;;;;;;10.21;100.00;98487.06;12193302;19;20011;-84
2023/12/11 06:51:42;;;;;;;1.67;1.00;;;;;;;10.14;100.00;98500.28;12218900;19;20007;-86
2023/12/11 06:55:43;;;;;;;7.63;1.83;;;;;;;10.10;100.00;98493.69;12216246;19;20007;-86
2023/12/11 06:59:45;;;;;;;2.28;1.10;;;;;;;10.23;100.00;98497.78;12196804;19;20027;-84
2023/12/11 07:03:50;;;;;;;5.68;1.40;;;;;;;10.40;100.00;98500.25;12217472;19;20011;-86
2023/12/11 07:07:52;;;;;;;5.38;1.30;;;;;;;10.48;100.00;98506.00;12214764;19;20011;-83
2023/12/11 07:11:54;;;;;;;2.23;1.00;;;;;;;10.46;100.00;98505.44;12195969;19;20726;-84
2023/12/11 07:15:56;;;;;;;4.13;0.98;;;;;;;10.51;100.00;98509.28;12211550;19;20021;-84
2023/12/11 07:19:58;;;;;;;3.90;0.88;;;;;;;10.47;100.00;98496.09;12215562;19;20026;-85
2023/12/11 07:24:00;;;;;;;2.70;0.90;;;;;;;10.38;100.00;98514.31;12191443;19;20038;-85
2023/12/11 07:28:02;;;;;;;4.75;1.10;;;;;;;10.35;100.00;98520.38;12217240;19;20006;-84
2023/12/11 07:32:04;;;;;;;7.33;1.37;;;;;;;10.46;100.00;98516.44;12214748;19;20034;-84
2023/12/11 07:36:06;;;;;;;2.80;1.30;;;;;;;10.66;100.00;98525.75;12192498;19;20003;-84
2023/12/11 07:40:09;;;;;;;5.50;1.53;;;;;;;10.71;100.00;98515.53;12215828;19;20369;-85
2023/12/11 07:44:11;;;;;;;6.63;1.30;;;;;;;10.80;100.00;98513.03;12214529;19;20019;-86
2023/12/11 07:48:13;;;;;;;4.15;1.30;;;;;;;10.90;100.00;98510.22;12189886;19;20087;-85
2023/12/11 07:52:15;;;;;;;3.17;1.10;;;;;;;10.97;100.00;98504.38;12213622;19;20023;-83
2023/12/11 07:56:21;;;;;;;8.00;1.20;;;;;;;11.10;100.00;98508.47;12212542;19;20027;-83
2023/12/11 08:00:23;;;;;;;7.30;1.20;;;;;;;11.18;100.00;98494.03;12191997;19;20041;-83
2023/12/11 08:04:25;;;;;;;3.90;1.10;;;;;;;11.29;100.00;98492.06;12213903;19;20011;-83
2023/12/11 08:08:27;;;;;;;5.53;1.73;;;;;;;11.40;100.00;98494.44;12217050;19;20477;-85
2023/12/11 08:12:32;;;;;;;4.55;1.63;;;;;;;11.55;100.00;98495.44;12201967;19;20300;-85
2023/12/11 08:16:42;;;;;;;2.40;1.23;;;;;;;11.62;100.00;98493.16;12259983;19;20010;-83
2023/12/11 08:20:44;;;;;;;4.13;1.58;;;;;;;11.73;100.00;98507.72;12253270;19;20003;-83
2023/12/11 08:24:48;;;;;;;10.25;1.67;;;;;;;11.85;100.00;98511.75;12265351;19;20010;-83
2023/12/11 08:28:50;;;;;;;7.83;1.17;;;;;;;11.82;100.00;98506.78;12211110;19;20006;-82
2023/12/11 08:32:52;;;;;;;1.97;0.87;;;;;;;11.71;100.00;98504.41;12187824;19;20006;-85
2023/12/11 08:36:55;;;;;;;6.27;1.17;;;;;;;11.70;100.00;98500.00;12211648;19;20006;-84
2023/12/11 08:40:58;;;;;;;6.07;1.33;;;;;;;11.63;100.00;98503.13;12210837;19;20461;-83
2023/12/11 08:45:01;;;;;;;4.95;1.63;;;;;;;11.78;100.00;98496.63;12185738;19;20022;-84
2023/12/11 08:49:03;;;;;;;8.65;1.25;;;;;;;11.83;100.00;98504.84;12210091;19;20023;-84
2023/12/11 08:53:06;;;;;;;7.88;1.08;;;;;;;11.97;100.00;98516.91;12211322;19;20061;-85
2023/12/11 08:57:09;;;;;;;9.27;1.63;;;;;;;12.16;100.00;98525.25;12187380;19;20018;-85
2023/12/11 09:01:10;;;;;;;4.82;1.17;;;;;;;12.11;100.00;98516.25;12213534;19;20358;-84
2023/12/11 09:05:12;;;;;;;7.43;1.80;;;;;;;12.20;100.00;98509.78;12208218;19;20034;-84
2023/12/11 09:09:14;;;;;;;8.90;1.40;;;;;;;12.17;99.55;98521.41;12199131;19;20007;-84
2023/12/11 09:13:17;;;;;;;7.63;1.30;;;;;;;12.19;100.00;98510.06;12208516;19;20061;-79
2023/12/11 09:17:24;;;;;;;4.70;1.13;;;;;;;12.19;99.92;98507.28;12182280;19;20026;-82
2023/12/11 09:21:26;;;;;;;3.55;1.50;;;;;;;12.12;100.00;98512.34;12194499;19;20010;-85
2023/12/11 09:25:28;;;;;;;7.47;1.47;;;;;;;12.05;100.00;98518.22;12210134;19;20062;-83
2023/12/11 09:29:30;;;;;;;7.82;1.60;;;;;;;12.07;99.40;98521.50;12209660;19;20014;-82
2023/12/11 09:33:33;;;;;;;6.05;1.27;;;;;;;12.15;96.57;98537.44;12194487;19;20014;-84
2023/12/11 09:37:35;;;;;;;11.20;1.30;;;;;;;12.23;95.26;98547.03;12211043;19;20010;-84
2023/12/11 09:41:43;;;;;;;9.73;1.60;;;;;;;12.23;94.03;98542.34;12207241;19;20006;-84
2023/12/11 09:45:48;;;;;;;8.35;1.27;;;;;;;12.10;93.80;98545.75;12187403;19;20024;-86
2023/12/11 09:49:51;;;;;;;9.35;2.05;;;;;;;11.92;93.90;98538.22;12208553;19;20033;-83
2023/12/11 09:53:54;;;;;;;;;;;;;;;11.79;94.27;98531.41;12187255;19;20010;-86
2023/12/11 09:57:56;;;;;;;9.17;1.23;;;;;;;11.71;95.32;98529.25;12202306;19;19926;-86
2023/12/11 10:01:59;;;;;;;9.40;1.48;;;;;;;11.70;95.42;98541.41;12207368;19;20351;-83
2023/12/11 10:06:03;;;;;;;10.95;1.52;;;;;;;11.75;96.13;98550.47;12184727;19;20025;-84
2023/12/11 10:10:17;;;;;;;5.15;1.55;;;;;;;11.89;96.36;98552.59;12214326;19;20085;-81
2023/12/11 10:14:24;;;;;;;5.93;1.60;;;;;;;12.01;96.35;98548.31;12210450;19;20015;-83
2023/12/11 10:18:26;;;;;;;12.30;2.72;;;;;;;12.17;95.69;98543.50;12192263;19;20014;-82
2023/12/11 10:22:31;;;;;;;10.35;1.50;;;;;;;12.34;95.76;98544.97;12219138;19;20018;-82
2023/12/11 10:26:37;;;;;;;9.73;2.20;;;;;;;12.43;95.15;98555.13;12216318;19;20031;-83
2023/12/11 10:30:56;;;;;;;7.65;2.28;;;;;;;12.50;93.37;98552.00;12229584;19;20018;-80
2023/12/11 10:34:58;;;;;;;7.60;1.60;;;;;;;12.69;93.14;98560.34;12252924;19;20014;-80
2023/12/11 10:39:08;;;;;;;6.72;1.40;;;;;;;12.87;90.93;98550.44;12231405;19;20011;-83
2023/12/11 10:43:13;;;;;;;7.57;1.52;;;;;;;13.06;89.62;98551.31;12233322;19;20022;-83
2023/12/11 10:47:15;;;;;;;13.52;3.78;;;;;;;13.06;86.55;98553.25;12215951;19;20025;-80
2023/12/11 10:51:18;;;;;;;8.57;2.42;;;;;;;13.05;84.99;98546.06;12194565;19;20006;-83
2023/12/11 10:55:20;;;;;;;;;;;;;;;13.05;84.87;98541.34;12209892;19;20002;-84
2023/12/11 10:59:24;;;;;;;7.35;1.70;;;;;;;13.10;84.52;98546.84;12210574;19;19942;-81
2023/12/11 11:03:26;;;;;;;9.93;1.65;;;;;;;13.06;84.78;98547.72;12188560;19;20019;-81
2023/12/11 11:07:34;;;;;;;15.65;2.13;;;;;;;13.00;83.48;98542.28;12204998;19;20014;-82
2023/12/11 11:11:44;;;;;;;9.10;1.85;;;;;;;13.02;84.53;98553.00;12206735;19;20046;-82
2023/12/11 11:15:52;;;;;;;8.98;1.85;;;;;;;12.99;84.56;98561.91;12179498;19;20014;-84
2023/12/11 11:20:24;;;;;;;12.85;1.85;;;;;;;12.99;84.64;98559.97;12205068;19;20041;-82
2023/12/11 11:24:27;;;;;;;8.80;1.75;;;;;;;12.93;83.29;98569.44;12182160;19;20011;-81
2023/12/11 11:28:40;;;;;;;8.95;1.83;;;;;;;13.02;83.66;98553.00;12214171;19;20101;-83
2023/12/11 11:32:55;;;;;;;4.25;1.27;;;;;;;13.01;82.52;98556.91;12200359;19;20074;-82
2023/12/11 11:36:58;;;;;;;16.58;1.92;;;;;;;13.02;81.59;98561.31;12219046;19;20031;-83
2023/12/11 11:41:02;;;;;;;11.10;2.00;;;;;;;13.04;81.85;98566.56;12221139;19;20811;-82
2023/12/11 11:45:11;;;;;;;9.13;1.83;;;;;;;13.03;82.40;98557.44;12199912;19;20039;-83
2023/12/11 11:49:34;;;;;;;7.15;1.70;;;;;;;13.15;82.69;98565.31;12222320;19;20607;-83
2023/12/11 11:53:39;;;;;;;;;;;;;;;13.17;80.25;98566.63;12219598;19;20018;-85
2023/12/11 11:57:43;;;;;;;13.00;1.52;;;;;;;13.27;79.42;98571.25;12193566;19;19914;-83
2023/12/11 12:01:55;;;;;;;10.88;1.92;;;;;;;13.31;78.32;98572.28;12218651;19;20002;-81
2023/12/11 12:05:57;;;;;;;12.77;1.73;;;;;;;13.29;78.17;98576.47;12197541;19;20030;-83
2023/12/11 12:10:00;;;;;;;8.48;1.88;;;;;;;13.32;78.26;98573.13;12234716;19;20020;-84
2023/12/11 12:14:02;;;;;;;11.93;1.60;;;;;;;13.32;78.02;98585.00;12236575;19;20043;-84
2023/12/11 12:18:07;;;;;;;5.67;2.03;;;;;;;13.32;77.99;98584.19;12209420;19;20366;-82
2023/12/11 12:22:13;;;;;;;7.90;1.88;;;;;;;13.32;77.95;98585.00;12241055;19;20082;-83
2023/12/11 12:26:18;;;;;;;11.48;2.20;;;;;;;13.30;76.99;98586.44;12232017;19;20015;-85
2023/12/11 12:30:22;;;;;;;7.97;1.77;;;;;;;13.27;77.63;98592.56;12207810;19;20017;-85
2023/12/11 12:34:25;;;;;;;12.10;2.17;;;;;;;13.26;77.42;98599.22;12236611;19;20003;-85
2023/12/11 12:38:27;;;;;;;9.13;1.85;;;;;;;13.22;76.10;98613.59;12241511;19;20048;-83
2023/12/11 12:42:30;;;;;;;9.23;1.80;;;;;;;13.21;74.27;98611.16;12208682;19;20029;-86
2023/12/11 12:46:42;;;;;;;7.85;1.60;;;;;;;13.41;73.84;98610.06;12227207;19;20017;-85
2023/12/11 12:50:45;;;;;;;4.40;1.10;;;;;;;13.43;72.93;98602.28;12207070;19;20002;-86
2023/12/11 12:54:49;;;;;;;8.68;1.92;;;;;;;13.46;73.24;98607.22;12229315;19;20011;-85
2023/12/11 12:58:55;;;;;;;7.57;1.27;;;;;;;13.52;71.36;98608.81;12221261;19;20029;-85
2023/12/11 13:02:58;;;;;;;8.93;1.63;;;;;;;13.45;69.96;98598.13;12203083;19;20011;-85
2023/12/11 13:07:21;;;;;;;2.85;1.25;;;;;;;13.58;70.04;98618.69;12227540;19;20010;-83
2023/12/11 13:11:45;;;;;;;6.82;1.20;;;;;;;13.52;68.83;98619.88;12221355;19;20007;-82
2023/12/11 13:15:48;;;;;;;;;;;;;;;13.42;66.38;98620.03;12202687;19;20014;-87
2023/12/11 13:19:51;;;;;;;7.53;2.67;;;;;;;13.44;66.08;98615.00;12220378;19;19970;-85
2023/12/11 13:23:55;;;;;;;9.02;1.70;;;;;;;13.39;68.09;98621.44;12194125;19;20074;-84
2023/12/11 13:28:03;;;;;;;1.80;0.70;;;;;;;13.31;66.05;98630.41;12212025;19;20006;-82
2023/12/11 13:32:06;;;;;;;6.85;1.60;;;;;;;13.27;66.46;98634.06;12211611;19;20011;-82
2023/12/11 13:36:08;;;;;;;6.90;2.08;;;;;;;13.32;66.98;98640.34;12196125;19;20023;-83
2023/12/11 13:40:11;;;;;;;6.30;1.42;;;;;;;13.32;66.79;98632.03;12220030;19;20007;-85
2023/12/11 13:44:13;;;;;;;4.45;1.65;;;;;;;13.33;67.63;98641.19;12217476;19;20006;-84
2023/12/11 13:48:16;;;;;;;8.70;1.20;;;;;;;13.23;67.31;98648.44;12194621;19;20011;-86
2023/12/11 13:52:18;;;;;;;4.13;1.15;;;;;;;13.22;67.41;98644.03;12217103;19;20483;-85
2023/12/11 13:56:21;;;;;;;5.60;1.33;;;;;;;13.23;67.83;98664.22;12214812;19;20507;-87
2023/12/11 14:00:23;;;;;;;9.07;1.58;;;;;;;13.17;67.76;98644.09;12195210;19;20054;-86
2023/12/11 14:04:28;;;;;;;10.43;1.73;;;;;;;13.13;67.72;98664.34;12214478;19;20018;-84
2023/12/11 14:08:30;;;;;;;7.28;1.50;;;;;;;13.09;67.20;98675.19;12211207;19;20081;-87
2023/12/11 14:12:34;;;;;;;9.85;1.10;;;;;;;13.10;67.06;98676.81;12197654;19;20011;-87
2023/12/11 14:16:35;;;;;;;8.73;1.35;;;;;;;13.07;66.89;98699.53;12215696;19;20077;-85
2023/12/11 14:20:39;;;;;;;7.75;1.73;;;;;;;12.91;68.61;98709.94;12211890;19;20093;-86
2023/12/11 14:24:42;;;;;;;5.38;1.20;;;;;;;12.77;71.59;98703.44;12186400;19;20079;-88
2023/12/11 14:28:47;;;;;;;6.63;1.15;;;;;;;12.64;73.23;98707.72;12213008;19;20011;-87
2023/12/11 14:32:48;;;;;;;7.17;1.30;;;;;;;12.51;75.15;98720.25;12187828;19;20006;-85
2023/12/11 14:36:50;;;;;;;4.93;1.67;;;;;;;12.45;76.41;98737.16;12210466;19;20029;-88
2023/12/11 14:40:52;;;;;;;9.90;1.87;;;;;;;12.47;75.91;98743.22;12210680;19;20011;-84
2023/12/11 14:44:55;;;;;;;9.73;1.60;;;;;;;12.45;76.02;98748.22;12191260;19;20011;-83
2023/12/11 14:48:56;;;;;;;7.82;1.30;;;;;;;12.41;76.01;98753.50;12210813;19;20556;-86
2023/12/11 14:52:59;;;;;;;6.95;1.50;;;;;;;12.44;75.44;98757.63;12213776;19;20018;-85
2023/12/11 14:57:02;;;;;;;9.60;1.52;;;;;;;12.45;75.22;98760.09;12190751;19;20014;-85
2023/12/11 15:01:04;;;;;;;5.63;1.02;;;;;;;12.44;74.85;98760.38;12214167;19;20020;-87
2023/12/11 15:05:07;;;;;;;;;;;;;;;12.36;76.13;98775.63;12235145;19;20018;-84
2023/12/11 15:09:13;;;;;;;7.45;1.48;;;;;;;12.27;76.66;98772.63;12247817;19;19915;-82
2023/12/11 15:13:15;;;;;;;10.20;1.35;;;;;;;12.24;76.99;98781.50;12269695;19;20018;-84
2023/12/11 15:17:18;;;;;;;8.65;1.83;;;;;;;12.16;77.15;98781.28;12263134;19;20011;-87
2023/12/11 15:21:22;;;;;;;6.78;1.70;;;;;;;12.08;77.94;98772.50;12215222;19;20006;-87
2023/12/11 15:25:25;;;;;;;6.53;1.50;;;;;;;12.10;78.17;98786.00;12233583;19;20014;-86
2023/12/11 15:29:29;;;;;;;3.55;1.30;;;;;;;12.02;79.25;98800.41;12225555;19;20022;-86
2023/12/11 15:33:31;;;;;;;4.88;0.93;;;;;;;11.92;79.59;98803.22;12196190;19;20007;-86
2023/12/11 15:37:33;;;;;;;7.33;1.17;;;;;;;11.80;80.19;98806.28;12223906;19;20007;-88
2023/12/11 15:41:36;;;;;;;4.47;1.55;;;;;;;11.72;80.45;98810.47;12245922;19;20019;-88
2023/12/11 15:45:38;;;;;;;4.68;1.30;;;;;;;11.70;80.61;98815.41;12221676;19;20037;-86
2023/12/11 15:49:47;;;;;;;3.95;1.30;;;;;;;11.72;80.47;98813.22;12275757;19;20022;-84
2023/12/11 15:53:52;;;;;;;2.88;1.35;;;;;;;11.70;80.84;98811.84;12255570;19;20014;-85
2023/12/11 15:57:58;;;;;;;7.55;1.25;;;;;;;11.73;79.99;98833.34;12243154;19;20014;-84
2023/12/11 16:02:00;;;;;;;5.00;1.15;;;;;;;11.79;79.17;98822.00;12218540;19;20135;-86
2023/12/11 16:06:04;;;;;;;2.67;0.95;;;;;;;11.83;78.79;98825.03;12193121;19;20013;-86
2023/12/11 16:10:06;;;;;;;5.32;1.35;;;;;;;11.83;78.66;98823.09;12219176;19;20015;-85
2023/12/11 16:14:11;;;;;;;8.93;1.77;;;;;;;11.83;78.94;98830.53;12223556;19;20035;-86
2023/12/11 16:18:14;;;;;;;5.90;1.58;;;;;;;11.81;79.14;98828.09;12193609;19;20010;-86
2023/12/11 16:22:16;;;;;;;;;;;;;;;11.71;80.87;98836.38;12221294;19;20033;-85
2023/12/11 16:26:18;;;;;;;7.78;1.83;;;;;;;11.64;81.80;98849.66;12216126;19;19915;-86
2023/12/11 16:30:21;;;;;;;8.57;2.08;;;;;;;11.62;82.26;98860.97;12189218;19;20499;-86
2023/12/11 16:34:24;;;;;;;10.10;2.70;;;;;;;11.58;82.92;98868.16;12212081;19;20042;-86
2023/12/11 16:38:27;;;;;;;7.43;2.10;;;;;;;11.58;83.14;98867.34;12212541;19;20267;-85
2023/12/11 16:42:34;;;;;;;10.10;3.30;;;;;;;11.53;83.31;98875.63;12190003;19;20074;-85
2023/12/11 16:46:44;;;;;;;14.20;3.45;;;;;;;11.50;83.52;98881.69;12211525;19;20795;-85
2023/12/11 16:50:47;;;;;;;9.95;3.00;;;;;;;11.51;83.51;98877.81;12196491;19;20380;-84
2023/12/11 16:54:50;;;;;;;8.20;2.47;;;;;;;11.48;83.65;98889.41;12210493;19;20299;-84
2023/12/11 16:58:51;;;;;;;7.43;2.03;;;;;;;11.41;84.17;98886.94;12209535;19;20010;-84
2023/12/11 17:02:56;;;;;;;15.40;2.78;;;;;;;11.35;84.52;98897.16;12190737;19;20010;-84
2023/12/11 17:06:59;;;;;;;9.95;1.67;;;;;;;11.34;84.69;98895.50;12210635;19;20017;-84
2023/12/11 17:11:01;;;;;;;;;;;;;;;11.25;85.35;98902.69;12213374;19;20056;-86
2023/12/11 17:15:03;;;;;;;10.10;3.45;;;;;;;11.26;85.19;98900.75;12192945;19;19914;-85
2023/12/11 17:19:05;;;;;;;12.55;3.13;;;;;;;11.23;85.04;98913.16;12213463;19;20029;-85
2023/12/11 17:23:07;;;;;;;10.27;2.63;;;;;;;11.33;84.38;98921.44;12213831;19;20034;-84
2023/12/11 17:27:09;;;;;;;13.60;2.53;;;;;;;11.29;83.92;98920.31;12190831;19;20024;-84
2023/12/11 17:31:12;;;;;;;15.50;2.47;;;;;;;11.37;83.77;98917.03;12213449;19;20015;-84
2023/12/11 17:35:14;;;;;;;12.48;3.33;;;;;;;11.36;83.50;98928.31;12212627;19;20006;-83
2023/12/11 17:39:16;;;;;;;11.80;3.45;;;;;;;11.40;82.83;98930.25;12189411;19;20023;-86
2023/12/11 17:43:18;;;;;;;11.30;1.98;;;;;;;11.44;82.60;98924.19;12211400;19;20010;-82
2023/12/11 17:47:20;;;;;;;16.75;2.38;;;;;;;11.40;81.84;98926.69;12211779;19;20015;-86
2023/12/11 17:51:25;;;;;;;;;;;;;;;11.40;81.39;98918.41;12193210;19;20010;-84
2023/12/11 17:55:27;;;;;;;5.40;2.15;;;;;;;11.36;81.84;98917.28;12209086;19;20396;-85
2023/12/11 17:59:30;;;;;;;8.10;2.03;;;;;;;11.37;81.87;98914.25;12209466;19;20017;-85
2023/12/11 18:03:31;;;;;;;7.85;2.10;;;;;;;11.31;81.63;98918.13;12188990;19;20022;-85
2023/12/11 18:07:34;;;;;;;10.90;1.90;;;;;;;11.36;81.12;98922.81;12209976;19;20019;-85
2023/12/11 18:11:36;;;;;;;6.45;1.80;;;;;;;11.34;81.69;98927.78;12207968;19;20020;-85
2023/12/11 18:15:39;;;;;;;;;;;;;;;11.31;81.39;98944.88;12186049;19;20085;-85
2023/12/11 18:19:42;;;;;;;5.68;1.60;;;;;;;11.25;81.63;98955.09;12208864;19;20547;-86
2023/12/11 18:23:44;;;;;;;9.60;2.13;;;;;;;11.26;81.43;98962.25;12208258;19;20015;-85
2023/12/11 18:27:46;;;;;;;9.23;1.90;;;;;;;11.27;81.55;98966.66;12187620;19;20010;-86
2023/12/11 18:31:49;;;;;;;8.80;1.80;;;;;;;11.29;81.62;98983.75;12212548;19;20017;-85
2023/12/11 18:35:52;;;;;;;12.05;2.45;;;;;;;11.23;81.44;98982.09;12215040;19;20013;-85
2023/12/11 18:39:55;;;;;;;7.55;1.73;;;;;;;11.23;81.33;98984.03;12232095;19;20025;-85
2023/12/11 18:43:57;;;;;;;14.82;2.75;;;;;;;11.18;81.20;98996.72;12224322;19;20046;-87
2023/12/11 18:48:02;;;;;;;12.35;2.35;;;;;;;11.18;81.53;99001.38;12201233;19;20011;-86
2023/12/11 18:52:04;;;;;;;11.23;2.20;;;;;;;11.13;82.57;99009.69;12225274;19;20014;-84